Keweenaw Bay, Michigan
Current Conditions -  °F | °C
As of 1:53 AM on Tuesday 21 Oct 2014 (Local Time) from KCMX Reporting Station
Overcast Overcast  
Wind Chill: 32°   Ceiling: 1400
Heat Index: 39°   Visibility: 10mi
Dew Point: 32°   Wind: 12mph
Humidity: 76%   Direction: 30°NNE
Pressure: 30.11"   Gusts: NA
Location:  46.811°N, 88.5098°W
Report Text: KCMX 210553Z AUTO 03010KT 10SM OVC014 04/00 A3011 RMK AO2 SLP207 T00390000 10056 20039 51013
Loading
Personal Weather Stations






























Interactive Weather Map
Tropical Storm Tracking
New forecast layout! Learn more

10-Day Weather Forecast

Advertisements
Track Severe Weather on mobile